Time;durP1;ratioP1;P1;durP2;ratioP2;P2;SDS_P1;SDS_P2;PMS_P1;PMS_P2;Temp;Humidity;BMP_temperature;BMP_pressure;BME280_temperature;BME280_humidity;BME280_pressure;Samples;Min_cycle;Max_cycle;Signal;HPM_P1;HPM_P2
2021/01/07 00:01:41;;;;;;;26.77;13.88;;;6.50;97.50;;;;;;5096230;28;20024;-70
2021/01/07 00:04:07;;;;;;;69.90;38.50;;;6.60;97.60;;;;;;5094871;28;20073;-70
2021/01/07 00:06:34;;;;;;;106.40;58.53;;;6.60;97.60;;;;;;5096711;28;20028;-69
2021/01/07 00:08:59;;;;;;;39.35;22.55;;;6.70;97.40;;;;;;5094797;28;20031;-69
2021/01/07 00:11:26;;;;;;;38.38;22.65;;;6.70;97.40;;;;;;5096865;28;20454;-69
2021/01/07 00:13:52;;;;;;;38.78;21.52;;;6.70;97.10;;;;;;5096315;28;20051;-69
2021/01/07 00:16:18;;;;;;;45.42;22.27;;;6.70;97.20;;;;;;5095752;28;20405;-70
2021/01/07 00:18:44;;;;;;;56.20;29.85;;;6.80;97.00;;;;;;5094876;28;20032;-69
2021/01/07 00:21:12;;;;;;;64.40;34.80;;;6.80;97.00;;;;;;5096143;28;20077;-69
2021/01/07 00:23:38;;;;;;;48.22;25.15;;;6.70;96.80;;;;;;5095815;28;20111;-69
2021/01/07 00:26:04;;;;;;;33.17;17.73;;;6.70;96.60;;;;;;5094479;28;20073;-70
2021/01/07 00:28:29;;;;;;;38.63;21.08;;;6.70;96.80;;;;;;5094609;28;20428;-69
2021/01/07 00:30:55;;;;;;;23.80;13.82;;;6.70;96.80;;;;;;5095340;28;20047;-70
2021/01/07 00:33:21;;;;;;;22.45;13.20;;;6.80;96.90;;;;;;5094703;28;20066;-69
2021/01/07 00:35:47;;;;;;;34.38;18.48;;;6.80;96.40;;;;;;5095589;28;20478;-70
2021/01/07 00:38:13;;;;;;;33.28;17.60;;;6.80;96.90;;;;;;5093446;28;20020;-70
2021/01/07 00:40:39;;;;;;;43.90;23.60;;;6.80;96.90;;;;;;5096058;28;20405;-70
2021/01/07 00:43:05;;;;;;;46.08;25.55;;;6.80;96.70;;;;;;5095120;28;20074;-70
2021/01/07 00:45:32;;;;;;;43.38;22.67;;;6.80;96.40;;;;;;5094384;28;20020;-70
2021/01/07 00:47:58;;;;;;;25.23;14.20;;;6.80;96.40;;;;;;5096020;28;20023;-69
2021/01/07 00:50:24;;;;;;;21.38;12.18;;;6.70;96.30;;;;;;5094911;28;20028;-70
2021/01/07 00:52:50;;;;;;;20.55;10.88;;;6.70;96.40;;;;;;5094233;28;20127;-70
2021/01/07 00:55:16;;;;;;;17.73;9.52;;;6.70;96.40;;;;;;5095656;28;20374;-70
2021/01/07 00:57:42;;;;;;;16.23;7.93;;;6.60;96.40;;;;;;5095135;28;20020;-70
2021/01/07 01:00:11;;;;;;;45.33;24.75;;;6.60;96.40;;;;;;5095640;28;20389;-70
2021/01/07 01:02:37;;;;;;;43.60;18.80;;;6.60;96.60;;;;;;5093999;28;20034;-70
2021/01/07 01:05:06;;;;;;;19.98;10.57;;;6.70;96.50;;;;;;5095049;28;20024;-70
2021/01/07 01:07:32;;;;;;;51.03;24.05;;;6.70;96.30;;;;;;5093876;28;20470;-70
2021/01/07 01:09:57;;;;;;;18.38;9.63;;;6.70;96.40;;;;;;5094102;28;20024;-70
2021/01/07 01:12:23;;;;;;;40.15;19.40;;;6.70;96.30;;;;;;5094805;28;20432;-70
2021/01/07 01:14:49;;;;;;;21.23;12.23;;;6.70;96.60;;;;;;5093351;28;20048;-70
2021/01/07 01:17:15;;;;;;;16.25;9.02;;;6.60;96.50;;;;;;5093764;28;20424;-70
2021/01/07 01:19:42;;;;;;;34.60;17.52;;;6.60;96.30;;;;;;5093391;28;20024;-70
2021/01/07 01:22:08;;;;;;;24.33;13.25;;;6.70;96.30;;;;;;5093678;28;20063;-69
2021/01/07 01:24:34;;;;;;;31.33;15.80;;;6.70;96.40;;;;;;5093567;28;20029;-69
2021/01/07 01:27:00;;;;;;;20.85;10.65;;;6.60;96.40;;;;;;5094612;28;20028;-69
2021/01/07 01:29:27;;;;;;;15.10;8.43;;;6.60;96.40;;;;;;5095126;28;20024;-70
2021/01/07 01:31:53;;;;;;;12.20;7.57;;;6.60;96.30;;;;;;5094708;28;20359;-70
2021/01/07 01:34:20;;;;;;;12.77;7.53;;;6.50;96.50;;;;;;5093388;28;20028;-69
2021/01/07 01:36:46;;;;;;;12.02;6.65;;;6.40;96.60;;;;;;5093390;28;20035;-70
2021/01/07 01:39:14;;;;;;;11.15;6.65;;;6.30;96.60;;;;;;5094023;28;20035;-70
2021/01/07 01:41:49;;;;;;;12.32;7.10;;;6.30;96.70;;;;;;5093339;28;20067;-70
2021/01/07 01:44:17;;;;;;;18.02;9.35;;;6.20;97.00;;;;;;5094370;28;20423;-70
2021/01/07 01:46:43;;;;;;;15.00;8.50;;;6.20;97.20;;;;;;5092974;28;20024;-69
2021/01/07 01:49:12;;;;;;;16.77;9.60;;;6.20;97.20;;;;;;5093176;28;20093;-70
2021/01/07 01:51:38;;;;;;;22.98;12.75;;;6.20;97.20;;;;;;5094119;28;20036;-70
2021/01/07 01:54:06;;;;;;;43.50;23.95;;;6.20;97.10;;;;;;5093071;28;20054;-70
2021/01/07 01:56:33;;;;;;;72.43;34.20;;;6.20;97.40;;;;;;5094381;28;20062;-70
2021/01/07 01:59:00;;;;;;;25.98;15.50;;;6.20;97.10;;;;;;5092994;28;20028;-70
2021/01/07 02:01:26;;;;;;;21.33;12.38;;;6.20;97.10;;;;;;5093971;28;20047;-70
2021/01/07 02:03:53;;;;;;;18.17;10.50;;;6.30;96.90;;;;;;5094511;28;20024;-70
2021/01/07 02:06:22;;;;;;;23.00;12.27;;;6.30;96.80;;;;;;5094215;28;20027;-70
2021/01/07 02:08:49;;;;;;;24.98;13.40;;;6.30;96.80;;;;;;5093641;28;20497;-70
2021/01/07 02:11:18;;;;;;;27.73;16.13;;;6.30;96.90;;;;;;5093810;28;20366;-70
2021/01/07 02:13:48;;;;;;;29.90;16.05;;;6.30;96.70;;;;;;5093157;28;20104;-70
2021/01/07 02:16:24;;;;;;;27.67;16.70;;;6.30;96.70;;;;;;5092429;28;20024;-70
2021/01/07 02:18:56;;;;;;;17.38;10.93;;;6.30;96.60;;;;;;5092471;28;20040;-70
2021/01/07 02:21:24;;;;;;;16.92;10.18;;;6.40;96.50;;;;;;5092366;28;20512;-70
2021/01/07 02:23:55;;;;;;;22.85;13.05;;;6.40;96.50;;;;;;5094268;28;20039;-70
2021/01/07 02:26:24;;;;;;;21.02;12.30;;;6.30;96.50;;;;;;5092670;28;20059;-70
2021/01/07 02:28:50;;;;;;;15.60;9.88;;;6.30;96.50;;;;;;5093627;28;20020;-70
2021/01/07 02:31:17;;;;;;;17.83;10.80;;;6.30;96.20;;;;;;5093512;28;20393;-70
2021/01/07 02:33:43;;;;;;;14.10;8.98;;;6.30;96.40;;;;;;5093831;28;20028;-70
2021/01/07 02:36:10;;;;;;;14.70;9.27;;;6.30;96.10;;;;;;5093259;28;20085;-70
2021/01/07 02:38:36;;;;;;;14.40;9.05;;;6.30;96.20;;;;;;5093788;28;20028;-70
2021/01/07 02:41:03;;;;;;;13.40;8.75;;;6.30;96.20;;;;;;5093495;28;20129;-70
2021/01/07 02:43:29;;;;;;;17.02;9.77;;;6.20;96.10;;;;;;5092226;28;20035;-70
2021/01/07 02:45:54;;;;;;;16.88;9.63;;;6.20;96.20;;;;;;5093810;28;20462;-70
2021/01/07 02:48:20;;;;;;;18.10;10.75;;;6.20;96.10;;;;;;5092325;28;20024;-70
2021/01/07 02:50:47;;;;;;;41.45;21.15;;;6.20;96.10;;;;;;5093104;28;20506;-70
2021/01/07 02:53:12;;;;;;;43.97;21.55;;;6.20;96.30;;;;;;5092373;28;20035;-70
2021/01/07 02:55:38;;;;;;;157.15;70.80;;;6.20;96.00;;;;;;5092354;28;20024;-70
2021/01/07 02:58:04;;;;;;;110.90;46.67;;;6.10;96.30;;;;;;5093374;28;20051;-70
2021/01/07 03:00:30;;;;;;;168.45;73.68;;;6.10;96.10;;;;;;5093457;28;20030;-70
2021/01/07 03:02:56;;;;;;;163.32;72.80;;;6.00;96.60;;;;;;5094877;28;20031;-69
2021/01/07 03:05:22;;;;;;;110.15;51.38;;;6.00;96.40;;;;;;5096377;28;20028;-70
2021/01/07 03:07:48;;;;;;;62.63;32.38;;;6.00;96.50;;;;;;5096263;28;20031;-70
2021/01/07 03:10:14;;;;;;;82.32;41.13;;;6.00;96.50;;;;;;5097226;28;20095;-70
2021/01/07 03:12:40;;;;;;;111.85;58.70;;;6.00;96.50;;;;;;5096099;28;20084;-70
2021/01/07 03:15:06;;;;;;;123.07;67.28;;;6.00;96.50;;;;;;5096166;28;20481;-70
2021/01/07 03:17:33;;;;;;;107.47;60.00;;;6.00;96.30;;;;;;5097158;28;20059;-70
2021/01/07 03:19:59;;;;;;;89.40;55.00;;;5.90;96.20;;;;;;5097043;28;20028;-70
2021/01/07 03:22:26;;;;;;;93.18;57.38;;;5.90;96.20;;;;;;5095995;28;20036;-70
2021/01/07 03:24:51;;;;;;;86.25;52.75;;;5.90;96.80;;;;;;5095964;28;20177;-70
2021/01/07 03:27:17;;;;;;;66.53;40.15;;;5.90;96.40;;;;;;5096472;28;20119;-70
2021/01/07 03:29:43;;;;;;;60.05;36.60;;;5.80;96.50;;;;;;5095821;28;20028;-70
2021/01/07 03:32:09;;;;;;;47.20;27.52;;;5.80;96.60;;;;;;5095487;28;20085;-70
2021/01/07 03:34:35;;;;;;;40.85;24.63;;;5.80;96.30;;;;;;5097266;28;20024;-70
2021/01/07 03:37:01;;;;;;;30.48;18.02;;;5.70;96.70;;;;;;5097294;28;20039;-70
2021/01/07 03:39:27;;;;;;;26.83;16.85;;;5.70;96.40;;;;;;5095405;28;20052;-70
2021/01/07 03:41:53;;;;;;;23.70;15.43;;;5.70;96.60;;;;;;5097194;28;20130;-70
2021/01/07 03:44:19;;;;;;;21.52;14.85;;;5.60;96.60;;;;;;5095559;28;20077;-70
2021/01/07 03:46:45;;;;;;;35.10;22.17;;;5.70;96.60;;;;;;5096298;28;20381;-70
2021/01/07 03:49:10;;;;;;;47.25;28.10;;;5.60;96.40;;;;;;5097105;28;20024;-70
2021/01/07 03:51:36;;;;;;;46.85;28.88;;;5.60;96.50;;;;;;5095379;28;20028;-70
2021/01/07 03:54:02;;;;;;;44.65;27.52;;;5.50;96.20;;;;;;5096440;28;20389;-70
2021/01/07 03:56:28;;;;;;;39.05;25.42;;;5.50;96.30;;;;;;5095373;28;20080;-70
2021/01/07 03:58:54;;;;;;;36.13;21.95;;;5.40;96.10;;;;;;5095200;28;20385;-70
2021/01/07 04:01:20;;;;;;;37.08;23.80;;;5.40;96.50;;;;;;5096853;28;20522;-70
2021/01/07 04:03:46;;;;;;;37.13;23.10;;;5.40;96.50;;;;;;5096519;28;20074;-70
2021/01/07 04:06:12;;;;;;;34.55;21.55;;;5.40;96.30;;;;;;5095582;28;20024;-70
2021/01/07 04:08:37;;;;;;;33.47;21.25;;;5.30;96.10;;;;;;5095144;28;20024;-70
2021/01/07 04:11:03;;;;;;;31.48;20.80;;;5.20;96.10;;;;;;5095029;28;20040;-70
2021/01/07 04:13:30;;;;;;;31.90;21.25;;;5.20;96.50;;;;;;5094321;28;20040;-70
2021/01/07 04:15:56;;;;;;;29.10;18.92;;;5.10;96.50;;;;;;5096352;28;20020;-70
2021/01/07 04:18:21;;;;;;;25.25;18.50;;;5.20;96.50;;;;;;5095987;28;20078;-70
2021/01/07 04:20:47;;;;;;;30.83;18.67;;;5.10;96.40;;;;;;5095788;28;20435;-70
2021/01/07 04:23:13;;;;;;;31.35;20.92;;;5.20;97.00;;;;;;5095114;28;20028;-70
2021/01/07 04:25:39;;;;;;;40.85;24.77;;;5.10;96.50;;;;;;5094827;28;20452;-70
2021/01/07 04:28:05;;;;;;;40.90;26.98;;;5.10;96.60;;;;;;5094400;28;20111;-70
2021/01/07 04:30:30;;;;;;;40.90;27.98;;;5.10;96.50;;;;;;5094588;28;20024;-70
2021/01/07 04:32:56;;;;;;;39.65;25.67;;;5.10;96.70;;;;;;5094662;28;20111;-70
2021/01/07 04:35:22;;;;;;;35.75;25.08;;;5.10;96.70;;;;;;5095376;28;20493;-70
2021/01/07 04:37:48;;;;;;;34.60;22.73;;;5.10;96.20;;;;;;5094545;28;20034;-70
2021/01/07 04:40:14;;;;;;;32.22;22.35;;;5.00;96.30;;;;;;5096131;28;20073;-70
2021/01/07 04:42:41;;;;;;;35.60;23.88;;;5.00;96.20;;;;;;5094383;28;20437;-71
2021/01/07 04:45:07;;;;;;;32.38;23.08;;;5.10;96.60;;;;;;5094414;28;20381;-70
2021/01/07 04:47:35;;;;;;;34.58;24.27;;;5.10;96.30;;;;;;5095415;28;20129;-70
2021/01/07 04:50:01;;;;;;;39.60;26.20;;;5.10;96.60;;;;;;5094918;28;20428;-71
2021/01/07 04:52:27;;;;;;;40.90;28.00;;;5.00;96.20;;;;;;5094193;28;20040;-70
2021/01/07 04:54:53;;;;;;;51.42;34.85;;;5.00;96.00;;;;;;5095305;28;20039;-70
2021/01/07 04:57:20;;;;;;;50.65;33.58;;;5.00;95.90;;;;;;5095746;28;20020;-71
2021/01/07 04:59:47;;;;;;;55.85;37.03;;;5.00;96.10;;;;;;5095141;28;20465;-70
2021/01/07 05:02:14;;;;;;;77.15;48.47;;;4.90;95.60;;;;;;5093760;28;20036;-70
2021/01/07 05:04:51;;;;;;;102.90;59.20;;;4.90;96.00;;;;;;5094022;28;20032;-70
2021/01/07 05:07:18;;;;;;;133.55;72.45;;;4.90;96.30;;;;;;5093987;28;20377;-70
2021/01/07 05:09:45;;;;;;;119.22;67.78;;;4.80;95.80;;;;;;5094031;28;20078;-70
2021/01/07 05:12:12;;;;;;;130.52;79.25;;;4.80;96.30;;;;;;5094807;28;20111;-70
2021/01/07 05:14:45;;;;;;;230.15;127.18;;;4.80;96.20;;;;;;5093663;28;20056;-70
2021/01/07 05:17:16;;;;;;;256.17;143.82;;;4.80;96.40;;;;;;5093478;28;20028;-70
2021/01/07 05:19:42;;;;;;;294.08;166.30;;;4.80;96.40;;;;;;5095287;28;20035;-71
2021/01/07 05:22:08;;;;;;;223.27;124.50;;;4.80;96.50;;;;;;5095010;28;20032;-70
2021/01/07 05:24:34;;;;;;;192.93;114.15;;;4.70;96.30;;;;;;5094170;28;20017;-72
2021/01/07 05:27:17;;;;;;;220.52;129.50;;;4.70;96.20;;;;;;5093871;28;20111;-70
2021/01/07 05:29:44;;;;;;;289.52;182.70;;;4.70;96.10;;;;;;5094885;28;20048;-70
2021/01/07 05:32:11;;;;;;;263.08;174.43;;;4.60;96.30;;;;;;5094435;28;20039;-70
2021/01/07 05:34:50;;;;;;;247.23;167.20;;;4.60;96.40;;;;;;5093451;28;20035;-70
2021/01/07 05:37:18;;;;;;;261.17;175.93;;;4.60;96.40;;;;;;5094718;28;20028;-70
2021/01/07 05:39:48;;;;;;;229.88;152.18;;;4.60;96.40;;;;;;5093393;28;20035;-70
2021/01/07 05:42:15;;;;;;;203.90;132.48;;;4.60;95.80;;;;;;5093967;28;20028;-70
2021/01/07 05:44:46;;;;;;;236.77;147.88;;;4.50;95.70;;;;;;5094320;28;20086;-70
2021/01/07 05:47:29;;;;;;;238.02;140.15;;;4.50;96.00;;;;;;5094460;28;20082;-70
2021/01/07 05:49:56;;;;;;;227.88;130.68;;;4.50;96.40;;;;;;5093246;28;20358;-70
2021/01/07 05:52:23;;;;;;;235.50;135.30;;;4.50;96.30;;;;;;5093800;28;20036;-70
2021/01/07 05:54:53;;;;;;;275.33;157.90;;;4.40;96.50;;;;;;5093124;28;20097;-70
2021/01/07 05:57:20;;;;;;;338.50;203.73;;;4.40;96.20;;;;;;5094595;28;20052;-71
2021/01/07 05:59:50;;;;;;;219.55;126.32;;;4.30;96.30;;;;;;5093732;28;20024;-70
2021/01/07 06:02:17;;;;;;;173.20;101.93;;;4.30;96.30;;;;;;5094067;28;20462;-70
2021/01/07 06:04:47;;;;;;;191.55;112.57;;;4.30;96.30;;;;;;5094532;28;20111;-70
2021/01/07 06:07:16;;;;;;;224.20;145.30;;;4.30;96.30;;;;;;5092647;28;20020;-70
2021/01/07 06:09:46;;;;;;;374.38;258.23;;;4.20;96.70;;;;;;5093898;28;20137;-70
2021/01/07 06:12:13;;;;;;;336.50;228.65;;;4.20;96.70;;;;;;5092204;28;20044;-70
2021/01/07 06:14:45;;;;;;;271.17;196.05;;;4.10;96.80;;;;;;5093583;28;20546;-72
2021/01/07 06:17:14;;;;;;;208.65;142.70;;;4.10;97.00;;;;;;5092786;28;20051;-71
2021/01/07 06:19:44;;;;;;;155.73;107.80;;;4.10;96.80;;;;;;5092437;28;20031;-70
2021/01/07 06:22:15;;;;;;;157.48;112.07;;;4.10;96.60;;;;;;5092706;28;20114;-70
2021/01/07 06:24:44;;;;;;;229.38;161.95;;;4.10;96.90;;;;;;5093669;28;20020;-70
2021/01/07 06:27:27;;;;;;;177.15;121.85;;;4.00;96.80;;;;;;5091432;28;20026;-70
2021/01/07 06:30:21;;;;;;;214.05;146.05;;;4.00;96.70;;;;;;5091589;28;20059;-70
2021/01/07 06:33:00;;;;;;;180.80;120.35;;;3.90;96.30;;;;;;5092397;28;20032;-70
2021/01/07 06:35:42;;;;;;;167.00;111.30;;;4.00;96.40;;;;;;5094048;28;20027;-70
2021/01/07 06:38:13;;;;;;;201.50;120.25;;;4.00;95.90;;;;;;5092684;28;20119;-70
2021/01/07 06:40:41;;;;;;;165.32;108.75;;;4.00;96.40;;;;;;5093259;28;20028;-70
2021/01/07 06:43:12;;;;;;;188.50;119.20;;;4.00;95.60;;;;;;5093714;28;20082;-72
2021/01/07 06:45:37;;;;;;;207.38;129.63;;;4.00;96.70;;;;;;5092430;28;20191;-71
2021/01/07 06:48:03;;;;;;;247.05;153.35;;;4.00;96.90;;;;;;5092031;28;20032;-70
2021/01/07 06:50:35;;;;;;;345.25;209.93;;;4.00;96.80;;;;;;5092347;28;20486;-71
2021/01/07 06:53:04;;;;;;;361.65;229.23;;;4.10;97.00;;;;;;5093660;28;20090;-70
2021/01/07 06:55:29;;;;;;;496.02;317.70;;;4.10;97.30;;;;;;5091954;28;20481;-70
2021/01/07 06:57:56;;;;;;;496.00;312.90;;;4.10;97.40;;;;;;5093586;28;20114;-71
2021/01/07 07:00:26;;;;;;;413.52;251.82;;;4.10;97.30;;;;;;5091405;28;20115;-71
2021/01/07 07:03:10;;;;;;;329.00;193.65;;;4.20;97.10;;;;;;5090241;28;20028;-71
2021/01/07 07:05:38;;;;;;;325.05;195.40;;;4.20;97.00;;;;;;5093230;28;20462;-71
2021/01/07 07:08:09;;;;;;;238.60;140.80;;;4.30;97.20;;;;;;5091883;28;20020;-71
2021/01/07 07:10:34;;;;;;;137.05;82.47;;;4.30;97.20;;;;;;5093198;28;20031;-70
2021/01/07 07:13:21;;;;;;;164.52;94.78;;;4.30;96.90;;;;;;5091917;28;20040;-71
2021/01/07 07:15:48;;;;;;;149.65;88.90;;;4.40;96.70;;;;;;5091924;28;20170;-69
2021/01/07 07:18:35;;;;;;;150.85;87.95;;;4.50;97.00;;;;;;5092330;28;20488;-71
2021/01/07 07:21:21;;;;;;;148.23;83.85;;;4.50;96.70;;;;;;5093672;28;20024;-70
2021/01/07 07:23:48;;;;;;;126.35;81.57;;;4.50;96.60;;;;;;5093138;28;20020;-70
2021/01/07 07:26:30;;;;;;;138.05;86.97;;;4.60;96.60;;;;;;5093344;28;20020;-70
2021/01/07 07:28:57;;;;;;;142.70;93.65;;;4.60;96.60;;;;;;5091926;28;20377;-70
2021/01/07 07:31:39;;;;;;;131.90;85.97;;;4.70;96.50;;;;;;5093513;28;20457;-70
2021/01/07 07:34:05;;;;;;;119.15;77.63;;;4.70;96.40;;;;;;5093621;28;20081;-70
2021/01/07 07:36:33;;;;;;;116.35;75.40;;;4.70;96.30;;;;;;5092698;28;20070;-70
2021/01/07 07:39:00;;;;;;;118.55;76.65;;;4.70;96.40;;;;;;5093284;28;20023;-69
2021/01/07 07:41:28;;;;;;;115.55;75.45;;;4.70;96.10;;;;;;5093254;28;20031;-70
2021/01/07 07:43:55;;;;;;;118.75;78.22;;;4.80;96.20;;;;;;5092879;28;20021;-68
2021/01/07 07:46:27;;;;;;;125.28;82.40;;;4.80;96.20;;;;;;5093186;28;20028;-69
2021/01/07 07:49:00;;;;;;;132.75;81.85;;;4.90;96.10;;;;;;5096022;28;20064;-70
2021/01/07 07:51:27;;;;;;;158.23;97.07;;;5.00;96.30;;;;;;5095332;28;20050;-70
2021/01/07 07:54:07;;;;;;;162.52;100.47;;;5.00;96.20;;;;;;5096848;28;20078;-70
2021/01/07 07:56:33;;;;;;;268.20;149.60;;;5.10;96.00;;;;;;5095811;28;20028;-71
2021/01/07 07:59:05;;;;;;;274.77;159.65;;;5.10;95.90;;;;;;5095337;28;20384;-70
2021/01/07 08:01:49;;;;;;;168.27;102.03;;;5.20;95.80;;;;;;5093408;28;20024;-70
2021/01/07 08:04:26;;;;;;;92.93;56.63;;;5.30;96.30;;;;;;5092977;28;20016;-70
2021/01/07 08:06:52;;;;;;;104.30;63.75;;;5.40;95.80;;;;;;5124864;27;20020;-71
2021/01/07 08:09:20;;;;;;;106.68;60.65;;;5.50;95.70;;;;;;5092422;28;20389;-70
2021/01/07 08:11:47;;;;;;;93.53;54.88;;;5.50;95.50;;;;;;5092804;28;20122;-70
2021/01/07 08:14:16;;;;;;;86.88;50.28;;;5.50;95.60;;;;;;5093485;28;20040;-71
2021/01/07 08:16:42;;;;;;;81.53;41.40;;;5.60;95.60;;;;;;5094874;28;20024;-69
2021/01/07 08:19:15;;;;;;;92.88;42.95;;;5.70;95.30;;;;;;5094231;28;20032;-69
2021/01/07 08:21:46;;;;;;;94.25;49.70;;;5.70;95.20;;;;;;5093358;28;20031;-70
2021/01/07 08:24:12;;;;;;;95.75;48.17;;;5.70;95.10;;;;;;5095880;28;20028;-69
2021/01/07 08:26:40;;;;;;;73.10;38.85;;;5.90;95.20;;;;;;5094366;28;20032;-70
2021/01/07 08:29:09;;;;;;;67.93;37.70;;;6.00;94.80;;;;;;5094784;28;20050;-72
2021/01/07 08:31:41;;;;;;;43.50;24.50;;;6.10;94.70;;;;;;5095924;28;20103;-71
2021/01/07 08:34:08;;;;;;;48.03;25.15;;;6.30;92.90;;;;;;5094666;28;20020;-70
2021/01/07 08:36:34;;;;;;;55.92;29.27;;;6.40;93.50;;;;;;5090641;28;20473;-71
2021/01/07 08:38:59;;;;;;;49.03;25.42;;;6.40;93.40;;;;;;5094458;28;20021;-72
2021/01/07 08:41:31;;;;;;;47.25;26.58;;;6.50;93.10;;;;;;5094175;28;20111;-72
2021/01/07 08:44:01;;;;;;;41.20;20.13;;;6.60;92.80;;;;;;5090582;28;20523;-72
2021/01/07 08:46:36;;;;;;;42.15;21.60;;;6.70;92.50;;;;;;5094359;28;20078;-72
2021/01/07 08:49:08;;;;;;;49.15;24.38;;;6.80;92.20;;;;;;5091752;28;20024;-71
2021/01/07 08:51:47;;;;;;;69.50;37.78;;;6.80;92.80;;;;;;5091298;28;20093;-70
2021/01/07 08:54:21;;;;;;;56.60;36.05;;;6.70;92.90;;;;;;5094278;28;20024;-73
2021/01/07 08:56:48;;;;;;;53.33;31.38;;;6.70;92.80;;;;;;5095648;28;20024;-71
2021/01/07 08:59:33;;;;;;;45.40;27.92;;;6.80;91.70;;;;;;5094851;28;20103;-75
2021/01/07 09:02:04;;;;;;;46.25;27.52;;;6.90;92.60;;;;;;5094692;28;20089;-70
2021/01/07 09:04:40;;;;;;;42.15;24.30;;;6.90;93.10;;;;;;5093122;28;20035;-71
2021/01/07 09:07:13;;;;;;;37.28;22.60;;;7.00;92.80;;;;;;5095297;28;20055;-72
2021/01/07 09:09:49;;;;;;;35.25;22.17;;;7.10;91.90;;;;;;5093956;28;20028;-70
2021/01/07 09:12:22;;;;;;;36.60;23.25;;;7.10;91.90;;;;;;5093397;28;20032;-72
2021/01/07 09:14:49;;;;;;;39.38;24.83;;;7.20;92.30;;;;;;5093937;28;20084;-72
2021/01/07 09:17:16;;;;;;;45.72;28.27;;;7.30;92.60;;;;;;5094902;28;20028;-71
2021/01/07 09:19:42;;;;;;;42.53;26.45;;;7.40;92.10;;;;;;5093480;28;20024;-73
2021/01/07 09:22:08;;;;;;;46.63;27.05;;;7.60;92.80;;;;;;5093391;28;20036;-73
2021/01/07 09:24:38;;;;;;;50.45;30.65;;;8.10;93.70;;;;;;5092781;28;20044;-70
2021/01/07 09:27:12;;;;;;;35.67;22.92;;;8.30;90.70;;;;;;5094993;28;20035;-71
2021/01/07 09:29:39;;;;;;;26.90;15.15;;;8.60;90.10;;;;;;5092532;28;20504;-69
2021/01/07 09:32:10;;;;;;;23.92;15.18;;;8.90;84.10;;;;;;5093036;28;20032;-70
2021/01/07 09:34:36;;;;;;;27.08;17.70;;;9.20;87.30;;;;;;5094861;28;20351;-70
2021/01/07 09:37:16;;;;;;;32.47;19.48;;;9.50;87.60;;;;;;5095021;28;20016;-69
2021/01/07 09:39:43;;;;;;;26.23;16.02;;;9.90;85.70;;;;;;5093443;28;20118;-69
2021/01/07 09:42:09;;;;;;;26.60;14.90;;;10.00;82.20;;;;;;5093814;28;20389;-72
2021/01/07 09:44:36;;;;;;;21.73;12.10;;;10.40;81.50;;;;;;5093265;28;20024;-71
2021/01/07 09:47:02;;;;;;;33.70;20.30;;;10.60;75.80;;;;;;5093020;28;20028;-69
2021/01/07 09:49:28;;;;;;;27.13;16.30;;;10.90;81.50;;;;;;5094523;28;20032;-71
2021/01/07 09:51:55;;;;;;;32.80;16.92;;;11.30;82.30;;;;;;5093099;28;20100;-70
2021/01/07 09:54:23;;;;;;;19.70;11.23;;;11.90;79.80;;;;;;5094073;28;20118;-73
2021/01/07 09:56:53;;;;;;;18.30;11.45;;;12.10;79.80;;;;;;5092783;28;20046;-71
2021/01/07 09:59:21;;;;;;;18.10;11.00;;;12.50;81.20;;;;;;5092991;28;20031;-73
2021/01/07 10:01:50;;;;;;;21.10;12.70;;;13.50;80.20;;;;;;5092790;28;20032;-73
2021/01/07 10:04:16;;;;;;;70.80;36.45;;;14.00;78.10;;;;;;5094231;28;20028;-70
2021/01/07 10:06:42;;;;;;;34.65;20.25;;;14.80;66.70;;;;;;5094179;28;20038;-72
2021/01/07 10:09:08;;;;;;;24.92;15.30;;;14.50;69.80;;;;;;5094468;28;20024;-69
2021/01/07 10:11:34;;;;;;;28.75;18.10;;;14.10;67.90;;;;;;5091858;28;20032;-72
2021/01/07 10:13:59;;;;;;;80.57;27.85;;;14.10;69.40;;;;;;5091927;28;20048;-71
2021/01/07 10:16:25;;;;;;;38.95;22.52;;;14.00;60.00;;;;;;5093797;28;20040;-71
2021/01/07 10:18:51;;;;;;;26.85;18.13;;;14.20;67.20;;;;;;5092752;28;20047;-70
2021/01/07 10:21:21;;;;;;;22.45;15.88;;;13.70;63.70;;;;;;5092986;28;20081;-73
2021/01/07 10:23:48;;;;;;;31.38;19.45;;;12.90;61.90;;;;;;5092824;28;20020;-70
2021/01/07 10:26:17;;;;;;;22.05;12.95;;;14.10;67.70;;;;;;5093958;28;20038;-70
2021/01/07 10:28:45;;;;;;;45.50;30.40;;;14.70;69.10;;;;;;5093781;28;20073;-72
2021/01/07 10:31:12;;;;;;;19.92;12.95;;;15.00;67.60;;;;;;5093529;28;20450;-72
2021/01/07 10:33:39;;;;;;;23.45;15.35;;;14.50;62.20;;;;;;5094131;28;20107;-70
2021/01/07 10:36:05;;;;;;;34.17;20.02;;;14.50;62.20;;;;;;5091924;28;20028;-70
2021/01/07 10:38:32;;;;;;;36.20;22.58;;;15.00;58.50;;;;;;5091981;28;20028;-72
2021/01/07 10:41:00;;;;;;;24.73;15.63;;;14.00;56.20;;;;;;5092336;28;20032;-75
2021/01/07 10:43:28;;;;;;;65.20;41.60;;;14.60;58.10;;;;;;5092082;28;20587;-73
2021/01/07 10:45:55;;;;;;;56.70;29.17;;;15.20;61.90;;;;;;5093824;28;20058;-73
2021/01/07 10:48:24;;;;;;;22.25;13.05;;;14.60;55.00;;;;;;5093848;28;20031;-74
2021/01/07 10:50:50;;;;;;;23.15;13.35;;;13.40;57.20;;;;;;5093625;28;20051;-70
2021/01/07 10:53:35;;;;;;;24.08;15.50;;;13.80;68.80;;;;;;5092366;28;20069;-73
2021/01/07 10:56:11;;;;;;;18.35;11.43;;;14.80;59.10;;;;;;5092441;28;20020;-73
2021/01/07 10:58:58;;;;;;;17.75;12.35;;;15.30;61.90;;;;;;5093291;28;20485;-74
2021/01/07 11:01:57;;;;;;;17.45;10.48;;;15.20;63.50;;;;;;5093624;28;20111;-72
2021/01/07 11:04:41;;;;;;;37.00;25.50;;;16.30;60.40;;;;;;5091960;28;20035;-72
2021/01/07 11:07:16;;;;;;;13.48;8.38;;;15.90;53.40;;;;;;5093288;28;20073;-75
2021/01/07 11:09:47;;;;;;;36.70;25.55;;;14.60;54.30;;;;;;5092916;28;20031;-71
2021/01/07 11:12:22;;;;;;;25.38;15.40;;;14.70;57.80;;;;;;5092362;28;20042;-73
2021/01/07 11:15:02;;;;;;;23.17;14.45;;;14.90;58.00;;;;;;5092241;28;20048;-73
2021/01/07 11:17:32;;;;;;;17.83;10.98;;;15.60;59.00;;;;;;5092156;28;20435;-73
2021/01/07 11:20:03;;;;;;;23.38;13.20;;;15.40;59.30;;;;;;5092134;28;20024;-72
2021/01/07 11:22:30;;;;;;;39.72;24.80;;;14.30;53.30;;;;;;5093940;28;20046;-73
2021/01/07 11:24:59;;;;;;;34.78;20.75;;;14.30;57.30;;;;;;5096709;28;20024;-73
2021/01/07 11:27:26;;;;;;;42.10;23.30;;;14.30;63.00;;;;;;5095932;28;20036;-76
2021/01/07 11:29:53;;;;;;;43.30;25.92;;;14.50;59.70;;;;;;5096202;28;20024;-72
2021/01/07 11:32:19;;;;;;;30.95;19.55;;;15.00;59.40;;;;;;5095661;28;20040;-72
2021/01/07 11:34:45;;;;;;;20.88;13.15;;;15.80;60.60;;;;;;5096778;28;20023;-72
2021/01/07 11:37:42;;;;;;;12.93;8.30;;;16.00;58.50;;;;;;5097041;28;20028;-72
2021/01/07 11:40:13;;;;;;;12.07;7.72;;;15.70;58.70;;;;;;5095641;28;20462;-72
2021/01/07 11:42:50;;;;;;;22.98;15.50;;;15.80;59.30;;;;;;5096961;28;20028;-72
2021/01/07 11:45:20;;;;;;;15.18;9.90;;;16.10;56.30;;;;;;5096648;28;20020;-71
2021/01/07 11:47:55;;;;;;;12.10;7.78;;;15.70;54.70;;;;;;5095999;28;20437;-72
2021/01/07 11:50:24;;;;;;;;;;;15.50;56.30;;;;;;5095975;28;20031;-72
2021/01/07 11:52:51;;;;;;;8.05;5.47;;;15.90;54.80;;;;;;5096260;28;19912;-72
2021/01/07 11:55:18;;;;;;;8.80;5.57;;;16.80;57.70;;;;;;5096743;28;20130;-71
2021/01/07 11:57:46;;;;;;;20.67;12.30;;;17.80;52.50;;;;;;5096415;28;20070;-73
2021/01/07 12:00:15;;;;;;;12.07;7.68;;;17.70;48.50;;;;;;5094974;28;20023;-75
2021/01/07 12:02:41;;;;;;;10.00;6.85;;;17.00;48.00;;;;;;5095235;28;20028;-72
2021/01/07 12:05:11;;;;;;;8.50;5.75;;;16.60;52.20;;;;;;5096512;28;20024;-71
2021/01/07 12:07:55;;;;;;;7.88;5.20;;;16.50;53.20;;;;;;5096089;28;20046;-70
2021/01/07 12:10:22;;;;;;;8.60;4.85;;;16.10;55.90;;;;;;5095130;28;20035;-73
2021/01/07 12:13:00;;;;;;;6.72;4.65;;;15.90;55.60;;;;;;5095605;28;20036;-71
2021/01/07 12:15:27;;;;;;;7.35;5.32;;;15.40;58.00;;;;;;5095078;28;20478;-73
2021/01/07 12:17:55;;;;;;;7.05;4.72;;;15.00;59.30;;;;;;5094945;28;20028;-72
2021/01/07 12:20:22;;;;;;;6.70;4.82;;;15.10;56.10;;;;;;5094614;28;20119;-71
2021/01/07 12:22:51;;;;;;;5.97;4.72;;;15.00;60.10;;;;;;5094941;28;20115;-72
2021/01/07 12:25:17;;;;;;;9.48;5.97;;;15.30;60.30;;;;;;5094843;28;20030;-71
2021/01/07 12:27:47;;;;;;;9.60;6.93;;;15.70;60.20;;;;;;5094564;28;20024;-72
2021/01/07 12:30:18;;;;;;;10.65;7.20;;;16.50;57.50;;;;;;5096104;28;20032;-72
2021/01/07 12:32:53;;;;;;;14.65;10.80;;;16.80;55.50;;;;;;5094722;28;20480;-71
2021/01/07 12:35:34;;;;;;;16.35;12.70;;;17.20;54.90;;;;;;5093332;28;20040;-71
2021/01/07 12:38:38;;;;;;;14.95;11.02;;;17.50;54.20;;;;;;5095923;28;20020;-71
2021/01/07 12:41:10;;;;;;;14.70;10.52;;;17.90;53.10;;;;;;4996739;28;20079;-73
2021/01/07 12:43:39;;;;;;;10.30;7.82;;;17.70;52.90;;;;;;5082142;28;20490;-72